首页
METAR-TAF:

METAR-TAF

机场 :

愛麗斯泉機場

愛麗斯泉, 澳大利亚

纬度: 23-48S, 经度: 133-53E, 海拔: 545米

当前天气观测

该预报发布于23分钟前的19:30 UTC
风速5节,风向
温度 20°C
湿度 18%
气压 1012 hPa
能见度10公里或以上

METAR: YBAS 221930Z AUTO 09005KT 9999 // NCD 20/M05 Q1012 RF00.0/000.0 PRESENT WEATHER SENSOR US

时间: 05:23 (19:53 UTC)

预报

该预报发布于2小时和49分钟前的17:04 UTC
预报有效从22日的 18点(UTC)到 23日的 18点(UTC)
风速8节,风向东转东北
能见度10公里或以上
1500米以下无云,无积雨云
从 22日的 2300点(UTC)
风速12节,风向
能见度10公里或以上
1500米以下无云,无积雨云

TAF: YBAS 221704Z 2218/2318 06008KT CAVOK FM222300 10012KT CAVOK

超过4000个机场的气象观测和天气预报(METAR&TAF报告)。

可查询的气象台以黄色和红色小点在地图上表示。

将鼠标移到小点上方,可查看气象台名称。

然后点击查看天气观测和预报。

如需切换地图:点击带黑十字的绿色按钮放大地图;点击带横线的绿色按钮缩小地图;或者点击绿色箭头查看邻近地区的地图。


METAR-TAF: